createdAt,value
2023-01-04T00:04:00.478Z,2.22
2023-01-04T00:09:02.516Z,2.08
2023-01-04T00:14:04.309Z,2.03
2023-01-04T00:19:06.295Z,1.70
2023-01-04T00:24:09.535Z,1.77
2023-01-04T00:29:13.297Z,1.48
2023-01-04T00:34:16.647Z,1.50
2023-01-04T00:39:18.780Z,1.80
2023-01-04T00:44:23.368Z,1.45
2023-01-04T00:49:25.858Z,1.20
2023-01-04T00:54:28.408Z,1.00
2023-01-04T00:59:30.231Z,1.10
2023-01-04T01:04:32.114Z,1.10
2023-01-04T01:09:34.169Z,0.90
2023-01-04T01:14:35.978Z,1.10
2023-01-04T01:19:37.863Z,1.10
2023-01-04T01:24:39.955Z,1.10
2023-01-04T01:29:41.754Z,1.10
2023-01-04T01:34:43.610Z,0.90
2023-01-04T01:39:45.452Z,1.10
2023-01-04T01:44:58.716Z,1.00
2023-01-04T01:50:01.329Z,1.00
2023-01-04T01:55:08.339Z,0.77
2023-01-04T02:00:15.509Z,1.10
2023-01-04T02:05:19.556Z,1.00
2023-01-04T02:10:21.590Z,0.85
2023-01-04T02:15:29.251Z,0.93
2023-01-04T02:21:01.767Z,0.80
2023-01-04T02:26:25.078Z,0.90
2023-01-04T02:31:45.834Z,1.00
2023-01-04T02:37:35.650Z,1.13
2023-01-04T02:43:03.509Z,0.85
2023-01-04T02:48:26.211Z,1.08
2023-01-04T02:53:34.364Z,1.25
2023-01-04T02:58:54.224Z,1.40
2023-01-04T03:04:28.191Z,1.48
2023-01-04T03:09:35.552Z,1.73
2023-01-04T03:14:45.681Z,2.10
2023-01-04T03:19:57.034Z,1.83
2023-01-04T03:25:19.411Z,2.00
2023-01-04T03:30:43.067Z,1.85
2023-01-04T03:35:59.202Z,2.78
2023-01-04T03:41:31.782Z,2.22
2023-01-04T03:47:08.788Z,1.77
2023-01-04T03:52:13.587Z,2.00
2023-01-04T03:57:16.913Z,1.80
2023-01-04T04:02:25.221Z,1.73
2023-01-04T04:07:45.707Z,2.20
2023-01-04T04:12:48.924Z,1.30
2023-01-04T04:17:50.857Z,2.05
2023-01-04T04:22:53.640Z,1.60
2023-01-04T04:27:55.508Z,1.90
2023-01-04T04:32:57.275Z,1.55
2023-01-04T04:37:59.352Z,1.95
2023-01-04T04:43:01.219Z,2.03
2023-01-04T04:48:03.044Z,1.70
2023-01-04T04:53:04.830Z,1.58
2023-01-04T04:58:06.609Z,1.42
2023-01-04T05:03:08.576Z,1.35
2023-01-04T05:08:10.573Z,1.50
2023-01-04T05:13:13.309Z,2.08
2023-01-04T05:18:18.119Z,1.50
2023-01-04T05:23:21.167Z,1.35
2023-01-04T05:28:23.352Z,1.40
2023-01-04T05:33:28.658Z,1.38
2023-01-04T05:38:31.081Z,1.35
2023-01-04T05:43:32.851Z,1.40
2023-01-04T05:48:34.709Z,1.45
2023-01-04T05:53:36.468Z,1.52
2023-01-04T05:58:38.385Z,1.63
2023-01-04T06:03:40.273Z,1.92
2023-01-04T06:08:42.225Z,1.60
2023-01-04T06:13:44.064Z,1.77
2023-01-04T06:18:45.813Z,1.48
2023-01-04T06:23:47.669Z,1.42
2023-01-04T06:28:49.439Z,1.77
2023-01-04T06:33:51.294Z,1.50
2023-01-04T06:38:53.576Z,1.63
2023-01-04T06:43:55.364Z,2.00
2023-01-04T06:48:58.249Z,1.30
2023-01-04T06:54:00.145Z,1.20
2023-01-04T06:59:01.913Z,1.10
2023-01-04T07:04:04.159Z,1.45
2023-01-04T07:09:06.018Z,1.35
2023-01-04T07:14:07.780Z,1.30
2023-01-04T07:19:09.704Z,1.25
2023-01-04T07:24:11.634Z,1.15
2023-01-04T07:29:17.283Z,1.30
2023-01-04T07:34:21.757Z,0.90
2023-01-04T07:39:23.673Z,1.20
2023-01-04T07:44:27.840Z,0.90
2023-01-04T07:49:29.768Z,1.00
2023-01-04T07:54:31.532Z,1.00
2023-01-04T07:59:33.362Z,1.13
2023-01-04T08:04:35.662Z,1.15
2023-01-04T08:09:37.510Z,1.05
2023-01-04T08:14:39.277Z,0.90
2023-01-04T08:19:41.136Z,1.13
2023-01-04T08:24:42.931Z,1.35
2023-01-04T08:29:44.766Z,1.45
2023-01-04T08:34:46.535Z,1.10
2023-01-04T08:39:49.751Z,1.20
2023-01-04T08:44:57.083Z,1.00
2023-01-04T08:50:08.217Z,1.00
2023-01-04T08:55:14.026Z,0.90
2023-01-04T09:00:19.164Z,1.02
2023-01-04T09:05:22.333Z,1.50
2023-01-04T09:10:25.025Z,1.17
2023-01-04T09:15:26.803Z,1.40
2023-01-04T09:20:28.882Z,1.05
2023-01-04T09:25:30.744Z,1.13
2023-01-04T09:30:35.667Z,1.23
2023-01-04T09:35:37.424Z,1.30
2023-01-04T09:41:03.627Z,1.08
2023-01-04T09:46:10.309Z,1.25
2023-01-04T09:51:16.676Z,1.00
2023-01-04T09:56:26.753Z,0.80
2023-01-04T10:01:44.798Z,1.20
2023-01-04T10:06:47.041Z,1.17
2023-01-04T10:12:09.407Z,0.90
2023-01-04T10:17:35.644Z,1.42
2023-01-04T10:23:29.637Z,0.50
2023-01-04T10:28:40.254Z,0.75
2023-01-04T10:34:06.337Z,0.90
2023-01-04T10:39:25.648Z,1.30
2023-01-04T10:44:49.094Z,0.80
2023-01-04T10:49:55.865Z,0.90
2023-01-04T10:55:10.919Z,1.02
2023-01-04T11:00:33.776Z,1.10
2023-01-04T11:05:35.547Z,0.88
2023-01-04T11:10:44.683Z,1.00
2023-01-04T11:15:47.877Z,1.10
2023-01-04T11:20:49.668Z,1.17
2023-01-04T11:25:58.751Z,1.17
2023-01-04T11:31:12.486Z,0.88
2023-01-04T11:36:31.821Z,0.73
2023-01-04T11:41:33.914Z,0.90
2023-01-04T11:46:35.677Z,1.00
2023-01-04T11:51:39.676Z,1.33
2023-01-04T11:57:11.070Z,1.00
2023-01-04T12:07:47.478Z,0.80
2023-01-04T12:12:49.413Z,1.05
2023-01-04T12:18:03.030Z,0.80
2023-01-04T12:23:05.189Z,0.90
2023-01-04T12:28:07.374Z,0.88
2023-01-04T12:33:34.144Z,1.00
2023-01-04T12:38:54.704Z,0.77
2023-01-04T12:43:56.486Z,1.17
2023-01-04T12:49:03.927Z,0.70
2023-01-04T12:54:21.937Z,0.70
2023-01-04T12:59:40.131Z,0.75
2023-01-04T13:04:42.509Z,0.90
2023-01-04T13:09:52.189Z,0.82
2023-01-04T13:15:14.470Z,0.90
2023-01-04T13:20:23.075Z,2.40
2023-01-04T13:25:25.964Z,1.05
2023-01-04T13:30:39.128Z,2.28
2023-01-04T13:35:40.870Z,0.80
2023-01-04T13:40:49.326Z,1.25
2023-01-04T13:46:15.830Z,0.93
2023-01-04T13:51:25.459Z,0.60
2023-01-04T13:56:32.073Z,0.80
2023-01-04T14:01:43.696Z,0.88
2023-01-04T14:06:48.455Z,0.88
2023-01-04T14:17:36.003Z,0.77
2023-01-04T14:22:41.439Z,0.90
2023-01-04T14:27:43.213Z,1.00
2023-01-04T14:32:58.708Z,0.68
2023-01-04T14:38:10.533Z,0.70
2023-01-04T14:43:43.517Z,0.70
2023-01-04T14:48:45.314Z,0.63
2023-01-04T14:53:47.417Z,0.80
2023-01-04T14:58:49.195Z,0.80
2023-01-04T15:03:51.000Z,0.80
2023-01-04T15:08:53.007Z,0.85
2023-01-04T15:13:54.835Z,0.80
2023-01-04T15:18:56.637Z,0.93
2023-01-04T15:23:58.514Z,1.35
2023-01-04T15:29:00.330Z,1.10
2023-01-04T15:34:02.114Z,0.93
2023-01-04T15:39:04.429Z,2.00
2023-01-04T15:44:09.808Z,1.50
2023-01-04T15:49:16.916Z,1.80
2023-01-04T15:54:21.854Z,2.13
2023-01-04T15:59:23.969Z,2.63
2023-01-04T16:04:26.879Z,2.38
2023-01-04T16:09:28.770Z,2.40
2023-01-04T16:14:30.669Z,2.83
2023-01-04T16:19:34.150Z,2.67
2023-01-04T16:29:57.935Z,3.17
2023-01-04T16:34:59.722Z,3.80
2023-01-04T16:40:09.539Z,3.88
2023-01-04T16:45:12.134Z,4.43
2023-01-04T16:50:14.167Z,4.72
2023-01-04T16:55:21.849Z,4.22
2023-01-04T17:00:25.525Z,4.55
2023-01-04T17:05:27.328Z,3.60
2023-01-04T17:10:29.855Z,3.85
2023-01-04T17:15:43.113Z,3.33
2023-01-04T17:21:11.070Z,3.90
2023-01-04T17:26:23.259Z,3.50
2023-01-04T17:31:33.912Z,4.32
2023-01-04T17:41:39.751Z,3.03
2023-01-04T17:46:41.976Z,3.47
2023-01-04T17:51:43.767Z,4.72
2023-01-04T17:56:45.561Z,4.28
2023-01-04T18:01:47.583Z,5.45
2023-01-04T18:06:49.593Z,4.22
2023-01-04T18:11:51.796Z,4.07
2023-01-04T18:16:57.452Z,4.32
2023-01-04T18:22:00.027Z,4.78
2023-01-04T18:27:21.057Z,4.53
2023-01-04T18:32:25.332Z,4.35
2023-01-04T18:37:27.146Z,3.53
2023-01-04T18:42:31.109Z,3.50
2023-01-04T18:47:33.061Z,4.15
2023-01-04T18:52:35.672Z,3.92
2023-01-04T18:57:38.515Z,4.43
2023-01-04T19:02:40.681Z,3.90
2023-01-04T19:07:42.833Z,5.25
2023-01-04T19:12:44.657Z,3.53
2023-01-04T19:17:46.572Z,3.88
2023-01-04T19:22:48.393Z,4.43
2023-01-04T19:27:50.314Z,4.63
2023-01-04T19:32:52.199Z,4.20
2023-01-04T19:37:54.287Z,4.28
2023-01-04T19:42:56.293Z,3.85
2023-01-04T19:47:58.153Z,4.47
2023-01-04T19:53:00.982Z,3.28
2023-01-04T19:58:05.218Z,3.67
2023-01-04T20:03:07.127Z,3.65
2023-01-04T20:08:09.153Z,3.08
2023-01-04T20:13:11.007Z,3.60
2023-01-04T20:18:14.368Z,3.70
2023-01-04T20:23:16.913Z,3.63
2023-01-04T20:28:21.111Z,4.20
2023-01-04T20:33:22.942Z,4.38
2023-01-04T20:38:26.767Z,3.80
2023-01-04T20:43:34.939Z,4.07
2023-01-04T20:48:36.925Z,3.25
2023-01-04T20:53:39.111Z,4.72
2023-01-04T20:58:41.026Z,4.38
2023-01-04T21:03:43.369Z,3.95
2023-01-04T21:08:45.953Z,4.38
2023-01-04T21:13:49.629Z,3.38
2023-01-04T21:18:51.391Z,4.72
2023-01-04T21:23:57.726Z,3.47
2023-01-04T21:28:59.963Z,3.33
2023-01-04T21:34:02.962Z,3.20
2023-01-04T21:39:07.625Z,3.55
2023-01-04T21:44:09.508Z,3.00
2023-01-04T21:49:11.960Z,3.00
2023-01-04T21:54:13.880Z,2.95
2023-01-04T21:59:16.505Z,4.18
2023-01-04T22:04:18.294Z,2.70
2023-01-04T22:09:20.115Z,3.10
2023-01-04T22:14:21.952Z,3.30
2023-01-04T22:19:23.767Z,3.67
2023-01-04T22:24:25.904Z,2.63
2023-01-04T22:29:27.870Z,3.47
2023-01-04T22:34:29.770Z,3.05
2023-01-04T22:39:31.573Z,3.65
2023-01-04T22:44:33.434Z,3.08
2023-01-04T22:49:35.213Z,3.15
2023-01-04T22:54:37.173Z,3.72
2023-01-04T22:59:39.218Z,2.90
2023-01-04T23:04:41.265Z,2.65
2023-01-04T23:09:43.503Z,3.30
2023-01-04T23:14:45.419Z,3.50
2023-01-04T23:19:47.187Z,3.75
2023-01-04T23:24:49.332Z,3.15
2023-01-04T23:29:51.283Z,2.72
2023-01-04T23:34:53.111Z,3.05
2023-01-04T23:39:54.886Z,3.90
2023-01-04T23:44:56.689Z,4.32
2023-01-04T23:49:58.558Z,2.97
2023-01-04T23:55:00.340Z,3.55
